Airfield :
LOGIN :

Register | Disclaimer

   EN    FR    IT 

 










Legend :    VFR   Marginal VFR   IFR   Intensive IFR   Very Intensive IFR
Visi :
Ceiling :
>= 8 km
>= 3000ft
5 to 8 km
1000 to 3000 ft
1500m to 5 km
500 to 1000 ft
800 to 1500m
200 to 500 ft
< 800m
< 200 ft
Symbols :   Thunderstorms  Fog  Heavy snow  Heavy precipitations  Wind > 20 kt
SIGMETs :     Misc.  Thunderstorms  Icing  Turbulence  Mountain Waves  Volcanic Ashes






- Airport Elevation : 242 ft
- IATA code : DUB


EIDW - Dublin

CURRENT METAR :
  • 071600Z 10004KT 3000 -DZ BR FEW003 SCT005 BKN007 14/14 Q1013 TEMPO BKN010

EXPIRED METARs :
  • 071530Z 09005KT 050V110 9000 -RADZ FEW004 BKN008 OVC010 14/13 Q1014 NOSIG
  • 071500Z 10004KT 6000 -RADZ FEW003 BKN005 OVC009 14/13 Q1014 NOSIG
  • 071430Z 13004KT 070V170 6000 -RADZ BKN004 BKN007 OVC009 13/13 Q1014 NOSIG
  • 071400Z 14007KT 100V170 7000 -RADZ SCT004 SCT007 BKN010 13/12 Q1014 NOSIG
  • 071330Z 13009KT 100V160 6000 -RA SCT004 SCT008 BKN015 12/12 Q1015 NOSIG

TAF TAF EIDW
Valid from the 07 at 12:00 until the 08 at 12:00 UTC


071100Z 0712/0812 14005KT 8000 -RADZ SCT008 BKN025
TEMPO 0712/0803 4000 RA BKN010
BECMG 0714/0716 VRB03KT
PROB40
TEMPO 0718/0803 2000 BR BKN003
BECMG 0807/0809 03007KT 9000 BKN015



MET'MAP, your aeronautical weather chart ! - Copyright ORBIFLY December 2007 - Disclaimer

ORBIFLY MET'MAP TEAM :

Programming & Development : Alexandra Zaïnal
Concept & original design : Baudouin d'Aumeries
Assistance for programming : Marc-Olivier Méhu
Technical & hardware support : Manuel Goepfert

Contact : metmap@orbifly.com




SOURCES & CREDITS :

   NOAA